BAW749 LSGG-EGLL
Flight info
| Callsign | BAW749 |
|---|---|
| Flight time | 1h 5m |
| Altitude | 36000 |
| Route | DIPIR1A/22 DIPIR T37 IBABA DCT TUTAX DCT OBURO DCT OKRIX DCT CLM DCT KOPOR DCT ABNUR DCT DIMAL DCT ALESO ALESO1H |
| Aircraft | A319/M-SDE3FGIJ1KRWXY/LB1 |
Departure
| Time | 2026-05-04 13:40 |
|---|---|
| Airport | Geneva International Airport (LSGG) |
Arrival
| Time | 2026-05-04 14:45 |
|---|---|
| Airport | London Heathrow Airport (EGLL) |
| Time | Latitude | Longitude | Altitude | Speed | Heading |
|---|---|---|---|---|---|
| 2026-05-04 13:02 | 46.23311 | 6.10959 | 1393 ft | 0 kts | 135° |
| 2026-05-04 13:23 | 46.23327 | 6.10937 | 1404 ft | 4 kts | 135° |
| 2026-05-04 13:23 | 46.23346 | 6.10910 | 1406 ft | 4 kts | 135° |
| 2026-05-04 13:23 | 46.23365 | 6.10883 | 1399 ft | 4 kts | 135° |
| 2026-05-04 13:23 | 46.23375 | 6.10869 | 1404 ft | 0 kts | 135° |
| 2026-05-04 13:27 | 46.23375 | 6.10874 | 1404 ft | 1 kts | 108° |
| 2026-05-04 13:27 | 46.23393 | 6.10899 | 1398 ft | 8 kts | 42° |
| 2026-05-04 13:27 | 46.23445 | 6.10978 | 1393 ft | 11 kts | 45° |
| 2026-05-04 13:28 | 46.23502 | 6.11058 | 1393 ft | 11 kts | 46° |
| 2026-05-04 13:28 | 46.23556 | 6.11141 | 1398 ft | 11 kts | 47° |
| 2026-05-04 13:28 | 46.23616 | 6.11144 | 1399 ft | 10 kts | 308° |
| 2026-05-04 13:28 | 46.23640 | 6.11109 | 1392 ft | 0 kts | 316° |
| 2026-05-04 13:29 | 46.23642 | 6.11107 | 1392 ft | 0 kts | 316° |
| 2026-05-04 13:31 | 46.23645 | 6.11103 | 1401 ft | 1 kts | 316° |
| 2026-05-04 13:31 | 46.23647 | 6.11100 | 1394 ft | 0 kts | 316° |
| 2026-05-04 13:31 | 46.23650 | 6.11096 | 1395 ft | 0 kts | 316° |
| 2026-05-04 13:32 | 46.23656 | 6.11088 | 1394 ft | 6 kts | 316° |
| 2026-05-04 13:32 | 46.23704 | 6.11083 | 1388 ft | 7 kts | 45° |
| 2026-05-04 13:32 | 46.23787 | 6.11201 | 1379 ft | 24 kts | 45° |
| 2026-05-04 13:32 | 46.23908 | 6.11379 | 1376 ft | 25 kts | 45° |
| 2026-05-04 13:33 | 46.23990 | 6.11497 | 1372 ft | 25 kts | 44° |
| 2026-05-04 13:33 | 46.24113 | 6.11680 | 1367 ft | 25 kts | 46° |
| 2026-05-04 13:33 | 46.24234 | 6.11860 | 1362 ft | 24 kts | 45° |
| 2026-05-04 13:33 | 46.24345 | 6.12020 | 1365 ft | 20 kts | 45° |
| 2026-05-04 13:34 | 46.24424 | 6.12137 | 1370 ft | 13 kts | 46° |
| 2026-05-04 13:34 | 46.24501 | 6.12250 | 1372 ft | 15 kts | 45° |
| 2026-05-04 13:34 | 46.24561 | 6.12338 | 1372 ft | 21 kts | 45° |
| 2026-05-04 13:34 | 46.24667 | 6.12494 | 1365 ft | 23 kts | 45° |
| 2026-05-04 13:35 | 46.24779 | 6.12654 | 1362 ft | 22 kts | 35° |
| 2026-05-04 13:35 | 46.24919 | 6.12722 | 1365 ft | 0 kts | 17° |
| 2026-05-04 13:36 | 46.24921 | 6.12723 | 1366 ft | 3 kts | 17° |
| 2026-05-04 13:36 | 46.24980 | 6.12740 | 1369 ft | 9 kts | 355° |
| 2026-05-04 13:37 | 46.25024 | 6.12700 | 1371 ft | 7 kts | 313° |
| 2026-05-04 13:37 | 46.25021 | 6.12672 | 1372 ft | 1 kts | 222° |
| 2026-05-04 13:37 | 46.25007 | 6.12659 | 1372 ft | 3 kts | 224° |
| 2026-05-04 13:37 | 46.25006 | 6.12657 | 1372 ft | 0 kts | 224° |
| 2026-05-04 13:39 | 46.24970 | 6.12605 | 1372 ft | 28 kts | 225° |
| 2026-05-04 13:39 | 46.24698 | 6.12203 | 1372 ft | 84 kts | 226° |
| 2026-05-04 13:39 | 46.24172 | 6.11422 | 1376 ft | 135 kts | 226° |
| 2026-05-04 13:39 | 46.23441 | 6.10354 | 1723 ft | 151 kts | 225° |
| 2026-05-04 13:40 | 46.22701 | 6.09293 | 2416 ft | 150 kts | 226° |
| 2026-05-04 13:40 | 46.21922 | 6.08169 | 2798 ft | 170 kts | 225° |
| 2026-05-04 13:40 | 46.21033 | 6.06878 | 3117 ft | 192 kts | 225° |
| 2026-05-04 13:40 | 46.20042 | 6.05416 | 3450 ft | 216 kts | 225° |
| 2026-05-04 13:41 | 46.18933 | 6.03775 | 3858 ft | 241 kts | 225° |
| 2026-05-04 13:41 | 46.17709 | 6.01971 | 4525 ft | 258 kts | 225° |
| 2026-05-04 13:41 | 46.16445 | 6.00114 | 5524 ft | 260 kts | 224° |
| 2026-05-04 13:42 | 46.14008 | 5.96278 | 7613 ft | 263 kts | 237° |
| 2026-05-04 13:42 | 46.13403 | 5.93789 | 8647 ft | 269 kts | 260° |
| 2026-05-04 13:42 | 46.13554 | 5.91065 | 9632 ft | 280 kts | 283° |
| 2026-05-04 13:42 | 46.14495 | 5.88564 | 10429 ft | 293 kts | 306° |
| 2026-05-04 13:43 | 46.16177 | 5.86805 | 11037 ft | 309 kts | 335° |
| 2026-05-04 13:43 | 46.18336 | 5.86009 | 11411 ft | 334 kts | 346° |
| 2026-05-04 13:43 | 46.20693 | 5.85382 | 11803 ft | 352 kts | 347° |
| 2026-05-04 13:43 | 46.23125 | 5.84791 | 12501 ft | 357 kts | 348° |
| 2026-05-04 13:44 | 46.25562 | 5.84211 | 13245 ft | 362 kts | 348° |
| 2026-05-04 13:44 | 46.28059 | 5.83606 | 13976 ft | 366 kts | 348° |
| 2026-05-04 13:44 | 46.30591 | 5.82971 | 14622 ft | 371 kts | 347° |
| 2026-05-04 13:44 | 46.33145 | 5.82313 | 15290 ft | 376 kts | 347° |
| 2026-05-04 13:45 | 46.35736 | 5.81635 | 15957 ft | 380 kts | 347° |
| 2026-05-04 13:45 | 46.38353 | 5.80947 | 16600 ft | 385 kts | 347° |
| 2026-05-04 13:45 | 46.40955 | 5.79995 | 17200 ft | 387 kts | 337° |
| 2026-05-04 13:45 | 46.43401 | 5.78385 | 17827 ft | 387 kts | 327° |
| 2026-05-04 13:46 | 46.45722 | 5.76506 | 18485 ft | 389 kts | 327° |
| 2026-05-04 13:46 | 46.48099 | 5.74581 | 19058 ft | 393 kts | 327° |
| 2026-05-04 13:46 | 46.50496 | 5.72641 | 19637 ft | 396 kts | 327° |
| 2026-05-04 13:46 | 46.52891 | 5.70632 | 20191 ft | 399 kts | 324° |
| 2026-05-04 13:47 | 46.55249 | 5.68466 | 20760 ft | 402 kts | 322° |
| 2026-05-04 13:47 | 46.57581 | 5.66194 | 21314 ft | 405 kts | 321° |
| 2026-05-04 13:47 | 46.59914 | 5.63855 | 21879 ft | 409 kts | 321° |
| 2026-05-04 13:47 | 46.62260 | 5.61493 | 22439 ft | 412 kts | 321° |
| 2026-05-04 13:48 | 46.64640 | 5.59121 | 22985 ft | 416 kts | 321° |
| 2026-05-04 13:48 | 46.67018 | 5.56779 | 23492 ft | 420 kts | 322° |
| 2026-05-04 13:48 | 46.69459 | 5.54396 | 23936 ft | 424 kts | 322° |
| 2026-05-04 13:48 | 46.71922 | 5.52002 | 24358 ft | 428 kts | 322° |
| 2026-05-04 13:49 | 46.74409 | 5.49589 | 24786 ft | 431 kts | 322° |
| 2026-05-04 13:49 | 46.76915 | 5.47154 | 25245 ft | 434 kts | 322° |
| 2026-05-04 13:49 | 46.79435 | 5.44702 | 25687 ft | 437 kts | 322° |
| 2026-05-04 13:49 | 46.81971 | 5.42222 | 26105 ft | 440 kts | 322° |
| 2026-05-04 13:50 | 46.84522 | 5.39714 | 26511 ft | 443 kts | 322° |
| 2026-05-04 13:50 | 46.87050 | 5.37223 | 26930 ft | 446 kts | 322° |
| 2026-05-04 13:50 | 46.89630 | 5.34680 | 27381 ft | 449 kts | 322° |
| 2026-05-04 13:50 | 46.92232 | 5.32118 | 27795 ft | 452 kts | 322° |
| 2026-05-04 13:51 | 46.94852 | 5.29536 | 28172 ft | 457 kts | 322° |
| 2026-05-04 13:51 | 46.97503 | 5.26923 | 28504 ft | 461 kts | 322° |
| 2026-05-04 13:51 | 47.00175 | 5.24287 | 28888 ft | 465 kts | 322° |
| 2026-05-04 13:51 | 47.02865 | 5.21632 | 29275 ft | 468 kts | 322° |
| 2026-05-04 13:52 | 47.08265 | 5.16291 | 30006 ft | 474 kts | 322° |
| 2026-05-04 13:52 | 47.11007 | 5.13567 | 30301 ft | 478 kts | 322° |
| 2026-05-04 13:52 | 47.13764 | 5.10820 | 30611 ft | 480 kts | 322° |
| 2026-05-04 13:53 | 47.16533 | 5.08061 | 30937 ft | 482 kts | 322° |
| 2026-05-04 13:53 | 47.19311 | 5.05291 | 31281 ft | 483 kts | 321° |
| 2026-05-04 13:53 | 47.22097 | 5.02514 | 31632 ft | 485 kts | 321° |
| 2026-05-04 13:54 | 47.27679 | 4.96950 | 32593 ft | 483 kts | 321° |
| 2026-05-04 13:54 | 47.30413 | 4.94220 | 33113 ft | 480 kts | 321° |
| 2026-05-04 13:54 | 47.35927 | 4.88700 | 34098 ft | 478 kts | 321° |
| 2026-05-04 13:55 | 47.38670 | 4.85943 | 34528 ft | 477 kts | 321° |
| 2026-05-04 13:55 | 47.44122 | 4.80441 | 35449 ft | 472 kts | 321° |
| 2026-05-04 13:55 | 47.46828 | 4.77705 | 35856 ft | 471 kts | 321° |
| 2026-05-04 13:56 | 47.49519 | 4.74980 | 35978 ft | 468 kts | 321° |
| 2026-05-04 13:56 | 47.52191 | 4.72274 | 35996 ft | 464 kts | 321° |
| 2026-05-04 13:57 | 47.60119 | 4.64247 | 35990 ft | 462 kts | 321° |
| 2026-05-04 13:58 | 47.70699 | 4.53461 | 35983 ft | 461 kts | 321° |
| 2026-05-04 13:58 | 47.78597 | 4.45379 | 35982 ft | 462 kts | 321° |
| 2026-05-04 13:59 | 47.83881 | 4.39960 | 35980 ft | 462 kts | 321° |
| 2026-05-04 14:00 | 47.91812 | 4.31803 | 35976 ft | 462 kts | 321° |
| 2026-05-04 14:00 | 47.99736 | 4.23613 | 35994 ft | 462 kts | 321° |
| 2026-05-04 14:01 | 48.04984 | 4.18172 | 35986 ft | 462 kts | 321° |
| 2026-05-04 14:02 | 48.12903 | 4.09944 | 35976 ft | 462 kts | 321° |
| 2026-05-04 14:02 | 48.18182 | 4.04439 | 35976 ft | 462 kts | 321° |
| 2026-05-04 14:03 | 48.23411 | 3.98962 | 35975 ft | 462 kts | 321° |
| 2026-05-04 14:03 | 48.28674 | 3.93425 | 35975 ft | 462 kts | 321° |
| 2026-05-04 14:04 | 48.36576 | 3.85123 | 35972 ft | 462 kts | 321° |
| 2026-05-04 14:04 | 48.41842 | 3.79573 | 35981 ft | 462 kts | 321° |
| 2026-05-04 14:05 | 48.49684 | 3.71255 | 35981 ft | 462 kts | 320° |
| 2026-05-04 14:06 | 48.54943 | 3.65666 | 35983 ft | 462 kts | 320° |
| 2026-05-04 14:06 | 48.60186 | 3.60082 | 35976 ft | 461 kts | 320° |
| 2026-05-04 14:07 | 48.65428 | 3.54480 | 35974 ft | 461 kts | 320° |
| 2026-05-04 14:07 | 48.70635 | 3.48918 | 35975 ft | 461 kts | 320° |
| 2026-05-04 14:08 | 48.75867 | 3.43299 | 35981 ft | 461 kts | 320° |
| 2026-05-04 14:08 | 48.81096 | 3.37664 | 35974 ft | 461 kts | 320° |
| 2026-05-04 14:09 | 48.88912 | 3.29236 | 35972 ft | 461 kts | 320° |
| 2026-05-04 14:10 | 48.96757 | 3.20748 | 35970 ft | 461 kts | 320° |
| 2026-05-04 14:10 | 49.01973 | 3.15058 | 35964 ft | 461 kts | 320° |
| 2026-05-04 14:11 | 49.07190 | 3.09358 | 35966 ft | 461 kts | 320° |
| 2026-05-04 14:11 | 49.14980 | 3.00851 | 35982 ft | 461 kts | 320° |
| 2026-05-04 14:12 | 49.20180 | 2.95146 | 35966 ft | 460 kts | 320° |
| 2026-05-04 14:13 | 49.27959 | 2.86565 | 35964 ft | 459 kts | 320° |
| 2026-05-04 14:13 | 49.33110 | 2.80878 | 35965 ft | 459 kts | 320° |
| 2026-05-04 14:14 | 49.38292 | 2.75149 | 35968 ft | 459 kts | 320° |
| 2026-05-04 14:14 | 49.46057 | 2.66515 | 35982 ft | 459 kts | 320° |
| 2026-05-04 14:15 | 49.56403 | 2.54962 | 35976 ft | 460 kts | 320° |
| 2026-05-04 14:16 | 49.64122 | 2.46312 | 35968 ft | 459 kts | 320° |
| 2026-05-04 14:17 | 49.71863 | 2.37608 | 35954 ft | 459 kts | 320° |
| 2026-05-04 14:18 | 49.79583 | 2.28867 | 35950 ft | 458 kts | 320° |
| 2026-05-04 14:19 | 49.89833 | 2.17206 | 35963 ft | 458 kts | 320° |
| 2026-05-04 14:19 | 49.94973 | 2.11350 | 35961 ft | 459 kts | 320° |
| 2026-05-04 14:20 | 50.00109 | 2.05477 | 35971 ft | 459 kts | 320° |
| 2026-05-04 14:20 | 50.05214 | 1.99623 | 35982 ft | 459 kts | 320° |
| 2026-05-04 14:21 | 50.12902 | 1.90768 | 35969 ft | 458 kts | 320° |
| 2026-05-04 14:21 | 50.17918 | 1.84687 | 35970 ft | 454 kts | 313° |
| 2026-05-04 14:22 | 50.22435 | 1.77815 | 35996 ft | 453 kts | 312° |
| 2026-05-04 14:22 | 50.26956 | 1.70925 | 35712 ft | 453 kts | 312° |
| 2026-05-04 14:23 | 50.31439 | 1.64076 | 35229 ft | 454 kts | 312° |
| 2026-05-04 14:23 | 50.33693 | 1.60622 | 34988 ft | 454 kts | 312° |
| 2026-05-04 14:23 | 50.35953 | 1.57158 | 34657 ft | 454 kts | 311° |
| 2026-05-04 14:24 | 50.38219 | 1.53677 | 33740 ft | 461 kts | 311° |
| 2026-05-04 14:24 | 50.40533 | 1.50113 | 32635 ft | 468 kts | 311° |
| 2026-05-04 14:24 | 50.42853 | 1.46531 | 31932 ft | 466 kts | 312° |
| 2026-05-04 14:24 | 50.45151 | 1.42989 | 31409 ft | 460 kts | 312° |
| 2026-05-04 14:25 | 50.47421 | 1.39489 | 30807 ft | 456 kts | 312° |
| 2026-05-04 14:25 | 50.51849 | 1.32496 | 29607 ft | 446 kts | 310° |
| 2026-05-04 14:25 | 50.53918 | 1.28999 | 29054 ft | 439 kts | 309° |
| 2026-05-04 14:26 | 50.55958 | 1.25466 | 28491 ft | 433 kts | 309° |
| 2026-05-04 14:26 | 50.57965 | 1.21972 | 27941 ft | 428 kts | 309° |
| 2026-05-04 14:26 | 50.59994 | 1.18571 | 27401 ft | 424 kts | 311° |
| 2026-05-04 14:26 | 50.62047 | 1.15282 | 26862 ft | 419 kts | 312° |
| 2026-05-04 14:27 | 50.64108 | 1.12068 | 26349 ft | 415 kts | 313° |
| 2026-05-04 14:27 | 50.66162 | 1.08893 | 25839 ft | 411 kts | 313° |
| 2026-05-04 14:27 | 50.68188 | 1.05752 | 25354 ft | 407 kts | 313° |
| 2026-05-04 14:27 | 50.70191 | 1.02622 | 24870 ft | 404 kts | 312° |
| 2026-05-04 14:28 | 50.72173 | 0.99498 | 24405 ft | 401 kts | 312° |
| 2026-05-04 14:28 | 50.74107 | 0.96424 | 23944 ft | 399 kts | 312° |
| 2026-05-04 14:28 | 50.76046 | 0.93322 | 23467 ft | 396 kts | 312° |
| 2026-05-04 14:28 | 50.77971 | 0.90236 | 22973 ft | 392 kts | 312° |
| 2026-05-04 14:29 | 50.81751 | 0.84187 | 22062 ft | 382 kts | 312° |
| 2026-05-04 14:29 | 50.85435 | 0.78284 | 21134 ft | 372 kts | 313° |
| 2026-05-04 14:30 | 50.87243 | 0.75386 | 20658 ft | 368 kts | 313° |
| 2026-05-04 14:30 | 50.89031 | 0.72517 | 20191 ft | 365 kts | 312° |
| 2026-05-04 14:30 | 50.92539 | 0.66875 | 19229 ft | 359 kts | 313° |
| 2026-05-04 14:31 | 50.94286 | 0.64059 | 18743 ft | 357 kts | 313° |
| 2026-05-04 14:31 | 50.97756 | 0.58462 | 17702 ft | 359 kts | 313° |
| 2026-05-04 14:32 | 51.01262 | 0.52794 | 16628 ft | 358 kts | 313° |
| 2026-05-04 14:32 | 51.02998 | 0.49987 | 16100 ft | 355 kts | 313° |
| 2026-05-04 14:32 | 51.04719 | 0.47193 | 15574 ft | 352 kts | 313° |
| 2026-05-04 14:32 | 51.06401 | 0.44460 | 15062 ft | 349 kts | 313° |
| 2026-05-04 14:33 | 51.08106 | 0.41737 | 14550 ft | 346 kts | 314° |
| 2026-05-04 14:33 | 51.09829 | 0.39085 | 14038 ft | 344 kts | 315° |
| 2026-05-04 14:33 | 51.11555 | 0.36475 | 13499 ft | 341 kts | 315° |
| 2026-05-04 14:33 | 51.13271 | 0.33892 | 12986 ft | 337 kts | 315° |
| 2026-05-04 14:34 | 51.14958 | 0.31349 | 12590 ft | 330 kts | 315° |
| 2026-05-04 14:34 | 51.16607 | 0.28850 | 12200 ft | 324 kts | 315° |
| 2026-05-04 14:34 | 51.18224 | 0.26394 | 11817 ft | 319 kts | 315° |
| 2026-05-04 14:34 | 51.19806 | 0.23977 | 11443 ft | 310 kts | 315° |
| 2026-05-04 14:35 | 51.21332 | 0.21635 | 11187 ft | 300 kts | 315° |
| 2026-05-04 14:35 | 51.22802 | 0.19374 | 10942 ft | 296 kts | 315° |
| 2026-05-04 14:35 | 51.24421 | 0.17258 | 10691 ft | 302 kts | 328° |
| 2026-05-04 14:35 | 51.26243 | 0.15652 | 10298 ft | 297 kts | 331° |
| 2026-05-04 14:36 | 51.28058 | 0.14116 | 9837 ft | 294 kts | 331° |
| 2026-05-04 14:36 | 51.29854 | 0.12609 | 9420 ft | 288 kts | 333° |
| 2026-05-04 14:36 | 51.31711 | 0.11476 | 8998 ft | 284 kts | 342° |
| 2026-05-04 14:36 | 51.33628 | 0.10861 | 8643 ft | 279 kts | 350° |
| 2026-05-04 14:37 | 51.35534 | 0.10432 | 8254 ft | 275 kts | 351° |
| 2026-05-04 14:37 | 51.37417 | 0.10038 | 7872 ft | 271 kts | 351° |
| 2026-05-04 14:37 | 51.39270 | 0.09656 | 7495 ft | 267 kts | 351° |
| 2026-05-04 14:37 | 51.41091 | 0.09221 | 7139 ft | 261 kts | 343° |
| 2026-05-04 14:38 | 51.42741 | 0.08138 | 6779 ft | 256 kts | 332° |
| 2026-05-04 14:38 | 51.44305 | 0.06884 | 6415 ft | 254 kts | 331° |
| 2026-05-04 14:38 | 51.45871 | 0.05589 | 6029 ft | 253 kts | 331° |
| 2026-05-04 14:38 | 51.47228 | 0.03907 | 5767 ft | 243 kts | 303° |
| 2026-05-04 14:39 | 51.47667 | 0.01403 | 5558 ft | 234 kts | 264° |
| 2026-05-04 14:39 | 51.47082 | -0.00985 | 5279 ft | 233 kts | 238° |
| 2026-05-04 14:39 | 51.46455 | -0.03456 | 4966 ft | 234 kts | 264° |
| 2026-05-04 14:40 | 51.46525 | -0.08509 | 4376 ft | 226 kts | 270° |
| 2026-05-04 14:40 | 51.46534 | -0.10989 | 4074 ft | 219 kts | 270° |
| 2026-05-04 14:40 | 51.46534 | -0.13395 | 3787 ft | 214 kts | 270° |
| 2026-05-04 14:40 | 51.46533 | -0.15764 | 3505 ft | 210 kts | 270° |
| 2026-05-04 14:41 | 51.46532 | -0.18059 | 3266 ft | 201 kts | 271° |
| 2026-05-04 14:41 | 51.46531 | -0.20274 | 2972 ft | 196 kts | 271° |
| 2026-05-04 14:41 | 51.46527 | -0.24589 | 2445 ft | 191 kts | 271° |
| 2026-05-04 14:42 | 51.46522 | -0.28735 | 1955 ft | 174 kts | 271° |
| 2026-05-04 14:42 | 51.46519 | -0.30529 | 1725 ft | 150 kts | 271° |
| 2026-05-04 14:42 | 51.46516 | -0.32110 | 1530 ft | 137 kts | 271° |
| 2026-05-04 14:43 | 51.46514 | -0.33609 | 1353 ft | 132 kts | 272° |
| 2026-05-04 14:43 | 51.46512 | -0.35075 | 1179 ft | 131 kts | 271° |
| 2026-05-04 14:43 | 51.46509 | -0.36522 | 1002 ft | 130 kts | 271° |
| 2026-05-04 14:43 | 51.46506 | -0.37969 | 827 ft | 129 kts | 272° |
| 2026-05-04 14:44 | 51.46504 | -0.39399 | 609 ft | 127 kts | 272° |
| 2026-05-04 14:44 | 51.46495 | -0.40798 | 446 ft | 125 kts | 271° |
| 2026-05-04 14:44 | 51.46493 | -0.42161 | 279 ft | 124 kts | 272° |
| 2026-05-04 14:44 | 51.46490 | -0.43541 | 132 ft | 123 kts | 272° |
| 2026-05-04 14:45 | 51.46491 | -0.44822 | 89 ft | 98 kts | 269° |
| 2026-05-04 14:45 | 51.46489 | -0.45619 | 86 ft | 45 kts | 270° |
| 2026-05-04 14:45 | 51.46555 | -0.45850 | 87 ft | 14 kts | 323° |
| 2026-05-04 14:45 | 51.46616 | -0.45919 | 86 ft | 9 kts | 325° |
| 2026-05-04 14:46 | 51.46661 | -0.46011 | 86 ft | 13 kts | 267° |
| 2026-05-04 14:46 | 51.46660 | -0.46172 | 89 ft | 16 kts | 270° |
| 2026-05-04 14:46 | 51.46659 | -0.46372 | 88 ft | 20 kts | 269° |
| 2026-05-04 14:46 | 51.46658 | -0.46585 | 87 ft | 20 kts | 269° |
| 2026-05-04 14:47 | 51.46657 | -0.46823 | 87 ft | 23 kts | 270° |
| 2026-05-04 14:47 | 51.46657 | -0.47077 | 87 ft | 24 kts | 269° |
| 2026-05-04 14:47 | 51.46657 | -0.47365 | 88 ft | 28 kts | 269° |
| 2026-05-04 14:47 | 51.46655 | -0.47604 | 86 ft | 16 kts | 269° |
| 2026-05-04 14:48 | 51.46654 | -0.47801 | 86 ft | 19 kts | 270° |
| 2026-05-04 14:48 | 51.46654 | -0.48038 | 86 ft | 23 kts | 269° |
| 2026-05-04 14:48 | 51.46652 | -0.48289 | 87 ft | 17 kts | 270° |
| 2026-05-04 14:48 | 51.46658 | -0.48443 | 86 ft | 11 kts | 294° |
| 2026-05-04 14:49 | 51.46740 | -0.48468 | 86 ft | 15 kts | 0° |
| 2026-05-04 14:49 | 51.46838 | -0.48468 | 86 ft | 11 kts | 360° |
| 2026-05-04 14:49 | 51.46878 | -0.48560 | 86 ft | 12 kts | 269° |
| 2026-05-04 14:49 | 51.46881 | -0.48639 | 86 ft | 3 kts | 310° |
| 2026-05-04 14:50 | 51.46912 | -0.48647 | 86 ft | 4 kts | 6° |
| 2026-05-04 14:50 | 51.46926 | -0.48647 | 88 ft | 1 kts | 0° |
| 2026-05-04 14:50 | 51.46932 | -0.48647 | 89 ft | 0 kts | 0° |